PRIVATE WETTERSTATION BILLIGHEIM-ALLFELD                       ZURCK
Wetterdaten: Freitag, 22.01.2016
Datum Zeit Temp. A. Temp. A. min Temp. A. max Feuchte A. Luftdruck Regen Wind Richtung Richtung Sonnenschein ET Solar Taupunkt Windchill Windben Empfang
22.01.2016 00:00 -6,8 C -6,8 C -6,8 C 92 % 1029,9 hPa 0,0 l/m 0,0 km/h (0 Bft) NO 45 0 min 0,000 mm 0 W/m -7,9 C -6,8 C 4,8 km/h (1 Bft) 100 %
22.01.2016 00:10 -7,1 C -7,1 C -6,8 C 91 % 1030,1 hPa 0,0 l/m 0,0 km/h (0 Bft) N 0 0 min 0,000 mm 0 W/m -8,3 C -7,1 C 0,0 km/h (0 Bft) 100 %
22.01.2016 00:20 -7,3 C -7,3 C -7,1 C 91 % 1030,1 hPa 0,0 l/m 0,0 km/h (0 Bft) NO 45 0 min 0,000 mm 0 W/m -8,5 C -7,3 C 3,2 km/h (1 Bft) 100 %
22.01.2016 00:30 -7,4 C -7,4 C -7,3 C 91 % 1030,0 hPa 0,0 l/m 0,0 km/h (0 Bft) NO 45 0 min 0,000 mm 0 W/m -8,6 C -7,4 C 3,2 km/h (1 Bft) 100 %
22.01.2016 00:40 -7,4 C -7,4 C -7,4 C 91 % 1030,1 hPa 0,0 l/m 0,0 km/h (0 Bft) N 0 0 min 0,000 mm 0 W/m -8,6 C -7,4 C 0,0 km/h (0 Bft) 100 %
22.01.2016 00:50 -7,4 C -7,4 C -7,4 C 91 % 1029,8 hPa 0,0 l/m 0,0 km/h (0 Bft) N 0 0 min 0,000 mm 0 W/m -8,6 C -7,4 C 0,0 km/h (0 Bft) 100 %
22.01.2016 01:00 -7,3 C -7,4 C -7,3 C 91 % 1030,1 hPa 0,0 l/m 0,0 km/h (0 Bft) N 0 0 min 0,000 mm 0 W/m -8,5 C -7,3 C 0,0 km/h (0 Bft) 100 %
22.01.2016 01:10 -7,5 C -7,5 C -7,3 C 91 % 1030,1 hPa 0,0 l/m 0,0 km/h (0 Bft) NO 45 0 min 0,000 mm 0 W/m -8,7 C -7,5 C 1,6 km/h (1 Bft) 100 %
22.01.2016 01:20 -7,6 C -7,6 C -7,5 C 91 % 1030,3 hPa 0,0 l/m 0,0 km/h (0 Bft) N 0 0 min 0,000 mm 0 W/m -8,8 C -7,6 C 0,0 km/h (0 Bft) 100 %
22.01.2016 01:30 -7,8 C -7,8 C -7,6 C 91 % 1030,2 hPa 0,0 l/m 0,0 km/h (0 Bft) NO 45 0 min 0,000 mm 0 W/m -9,0 C -7,8 C 1,6 km/h (1 Bft) 90 %
22.01.2016 01:40 -7,8 C -7,8 C -7,8 C 91 % 1030,1 hPa 0,0 l/m 0,0 km/h (0 Bft) NO 45 0 min 0,000 mm 0 W/m -9,0 C -7,8 C 4,8 km/h (1 Bft) 100 %
22.01.2016 01:50 -8,0 C -8,0 C -7,8 C 91 % 1030,4 hPa 0,0 l/m 0,0 km/h (0 Bft) NO 45 0 min 0,000 mm 0 W/m -9,2 C -8,0 C 1,6 km/h (1 Bft) 100 %
22.01.2016 02:00 -8,1 C -8,1 C -8,0 C 92 % 1030,1 hPa 0,0 l/m 0,0 km/h (0 Bft) N 360 0 min 0,000 mm 0 W/m -9,2 C -8,1 C 4,8 km/h (1 Bft) 100 %
22.01.2016 02:10 -8,1 C -8,1 C -8,1 C 92 % 1029,9 hPa 0,0 l/m 0,0 km/h (0 Bft) N 360 0 min 0,000 mm 0 W/m -9,2 C -8,1 C 3,2 km/h (1 Bft) 100 %
22.01.2016 02:20 -8,2 C -8,2 C -8,1 C 91 % 1030,0 hPa 0,0 l/m 0,0 km/h (0 Bft) N 360 0 min 0,000 mm 0 W/m -9,4 C -8,2 C 3,2 km/h (1 Bft) 87 %
22.01.2016 02:30 -8,2 C -8,2 C -8,2 C 91 % 1029,9 hPa 0,0 l/m 0,0 km/h (0 Bft) N 360 0 min 0,000 mm 0 W/m -9,4 C -8,2 C 4,8 km/h (1 Bft) 100 %
22.01.2016 02:40 -8,3 C -8,3 C -8,2 C 91 % 1029,8 hPa 0,0 l/m 0,0 km/h (0 Bft) N 360 0 min 0,000 mm 0 W/m -9,5 C -8,3 C 4,8 km/h (1 Bft) 100 %
22.01.2016 02:50 -8,3 C -8,3 C -8,3 C 92 % 1029,9 hPa 0,0 l/m 0,0 km/h (0 Bft) N 360 0 min 0,000 mm 0 W/m -9,4 C -8,3 C 3,2 km/h (1 Bft) 100 %
22.01.2016 03:00 -8,4 C -8,4 C -8,3 C 92 % 1029,9 hPa 0,0 l/m 0,0 km/h (0 Bft) N 0 0 min 0,000 mm 0 W/m -9,5 C -8,4 C 0,0 km/h (0 Bft) 100 %
22.01.2016 03:10 -8,4 C -8,4 C -8,3 C 92 % 1029,9 hPa 0,0 l/m 0,0 km/h (0 Bft) N 360 0 min 0,000 mm 0 W/m -9,5 C -8,4 C 3,2 km/h (1 Bft) 100 %
22.01.2016 03:20 -8,3 C -8,4 C -8,3 C 91 % 1030,0 hPa 0,0 l/m 0,0 km/h (0 Bft) N 0 0 min 0,000 mm 0 W/m -9,5 C -8,3 C 0,0 km/h (0 Bft) 100 %
22.01.2016 03:30 -8,3 C -8,3 C -8,2 C 91 % 1030,1 hPa 0,0 l/m 0,0 km/h (0 Bft) N 0 0 min 0,000 mm 0 W/m -9,5 C -8,3 C 0,0 km/h (0 Bft) 100 %
22.01.2016 03:40 -8,4 C -8,4 C -8,3 C 91 % 1030,1 hPa 0,0 l/m 0,0 km/h (0 Bft) N 0 0 min 0,000 mm 0 W/m -9,6 C -8,4 C 0,0 km/h (0 Bft) 100 %
22.01.2016 03:50 -8,6 C -8,6 C -8,4 C 90 % 1030,0 hPa 0,0 l/m 0,0 km/h (0 Bft) N 0 0 min 0,000 mm 0 W/m -9,9 C -8,6 C 0,0 km/h (0 Bft) 100 %
22.01.2016 04:00 -8,7 C -8,7 C -8,6 C 90 % 1029,9 hPa 0,0 l/m 0,0 km/h (0 Bft) N 0 0 min 0,000 mm 0 W/m -10,0 C -8,7 C 0,0 km/h (0 Bft) 100 %
22.01.2016 04:10 -8,7 C -8,7 C -8,7 C 91 % 1029,8 hPa 0,0 l/m 0,0 km/h (0 Bft) N 360 0 min 0,000 mm 0 W/m -9,9 C -8,7 C 3,2 km/h (1 Bft) 100 %
22.01.2016 04:20 -8,8 C -8,8 C -8,7 C 91 % 1029,9 hPa 0,0 l/m 0,0 km/h (0 Bft) N 360 0 min 0,000 mm 0 W/m -10,0 C -8,8 C 3,2 km/h (1 Bft) 100 %
22.01.2016 04:30 -8,9 C -8,9 C -8,8 C 91 % 1029,9 hPa 0,0 l/m 0,0 km/h (0 Bft) N 0 0 min 0,000 mm 0 W/m -10,1 C -8,9 C 0,0 km/h (0 Bft) 100 %
22.01.2016 04:40 -8,9 C -8,9 C -8,9 C 91 % 1029,9 hPa 0,0 l/m 0,0 km/h (0 Bft) N 360 0 min 0,000 mm 0 W/m -10,1 C -8,9 C 3,2 km/h (1 Bft) 100 %
22.01.2016 04:50 -8,9 C -8,9 C -8,9 C 91 % 1030,0 hPa 0,0 l/m 0,0 km/h (0 Bft) N 0 0 min 0,000 mm 0 W/m -10,1 C -8,9 C 0,0 km/h (0 Bft) 100 %
22.01.2016 05:00 -8,9 C -9,0 C -8,9 C 91 % 1029,9 hPa 0,0 l/m 0,0 km/h (0 Bft) N 0 0 min 0,000 mm 0 W/m -10,1 C -8,9 C 0,0 km/h (0 Bft) 100 %
22.01.2016 05:10 -8,9 C -8,9 C -8,9 C 91 % 1030,0 hPa 0,0 l/m 0,0 km/h (0 Bft) N 360 0 min 0,000 mm 0 W/m -10,1 C -8,9 C 3,2 km/h (1 Bft) 100 %
22.01.2016 05:20 -8,9 C -8,9 C -8,9 C 91 % 1029,9 hPa 0,0 l/m 0,0 km/h (0 Bft) N 360 0 min 0,000 mm 0 W/m -10,1 C -8,9 C 3,2 km/h (1 Bft) 100 %
22.01.2016 05:30 -8,9 C -8,9 C -8,9 C 91 % 1030,0 hPa 0,0 l/m 1,6 km/h (1 Bft) N-NW 337 0 min 0,000 mm 0 W/m -10,1 C -8,9 C 3,2 km/h (1 Bft) 88 %
22.01.2016 05:40 -9,1 C -9,1 C -8,9 C 91 % 1030,3 hPa 0,0 l/m 0,0 km/h (0 Bft) N-NW 337 0 min 0,000 mm 0 W/m -10,3 C -9,1 C 3,2 km/h (1 Bft) 100 %
22.01.2016 05:50 -9,2 C -9,2 C -9,1 C 91 % 1030,1 hPa 0,0 l/m 0,0 km/h (0 Bft) N 0 0 min 0,000 mm 0 W/m -10,4 C -9,2 C 0,0 km/h (0 Bft) 100 %
22.01.2016 06:00 -9,3 C -9,3 C -9,2 C 91 % 1030,1 hPa 0,0 l/m 0,0 km/h (0 Bft) N-NW 337 0 min 0,000 mm 0 W/m -10,5 C -9,3 C 3,2 km/h (1 Bft) 100 %
22.01.2016 06:10 -9,3 C -9,4 C -9,2 C 91 % 1030,1 hPa 0,0 l/m 0,0 km/h (0 Bft) N 0 0 min 0,000 mm 0 W/m -10,5 C -9,3 C 0,0 km/h (0 Bft) 100 %
22.01.2016 06:20 -9,4 C -9,4 C -9,3 C 91 % 1030,3 hPa 0,0 l/m 0,0 km/h (0 Bft) N-NW 337 0 min 0,000 mm 0 W/m -10,6 C -9,4 C 3,2 km/h (1 Bft) 100 %
22.01.2016 06:30 -9,3 C -9,4 C -9,3 C 91 % 1030,2 hPa 0,0 l/m 0,0 km/h (0 Bft) N 0 0 min 0,000 mm 0 W/m -10,5 C -9,3 C 0,0 km/h (0 Bft) 100 %
22.01.2016 06:40 -9,3 C -9,3 C -9,3 C 91 % 1030,2 hPa 0,0 l/m 1,6 km/h (1 Bft) N-NW 337 0 min 0,000 mm 0 W/m -10,5 C -9,3 C 3,2 km/h (1 Bft) 100 %
22.01.2016 06:50 -9,4 C -9,4 C -9,3 C 91 % 1030,0 hPa 0,0 l/m 0,0 km/h (0 Bft) N 0 0 min 0,000 mm 0 W/m -10,6 C -9,4 C 0,0 km/h (0 Bft) 100 %
22.01.2016 07:00 -9,4 C -9,4 C -9,4 C 90 % 1030,3 hPa 0,0 l/m 0,0 km/h (0 Bft) N 0 0 min 0,000 mm 0 W/m -10,7 C -9,4 C 0,0 km/h (0 Bft) 100 %
22.01.2016 07:10 -9,5 C -9,5 C -9,4 C 91 % 1030,3 hPa 0,0 l/m 0,0 km/h (0 Bft) N-NW 337 0 min 0,000 mm 0 W/m -10,7 C -9,5 C 3,2 km/h (1 Bft) 100 %
22.01.2016 07:20 -9,5 C -9,5 C -9,5 C 91 % 1030,2 hPa 0,0 l/m 0,0 km/h (0 Bft) N 0 0 min 0,000 mm 0 W/m -10,7 C -9,5 C 0,0 km/h (0 Bft) 100 %
22.01.2016 07:30 -9,7 C -9,7 C -9,5 C 91 % 1030,3 hPa 0,0 l/m 0,0 km/h (0 Bft) N-NW 337 0 min 0,000 mm 0 W/m -10,9 C -9,7 C 3,2 km/h (1 Bft) 100 %
22.01.2016 07:40 -9,8 C -9,8 C -9,7 C 90 % 1030,3 hPa 0,0 l/m 0,0 km/h (0 Bft) N-NW 337 0 min 0,000 mm 0 W/m -11,1 C -9,8 C 3,2 km/h (1 Bft) 100 %
22.01.2016 07:50 -9,8 C -9,8 C -9,8 C 91 % 1030,6 hPa 0,0 l/m 0,0 km/h (0 Bft) N-NW 337 0 min 0,000 mm 0 W/m -11,0 C -9,8 C 4,8 km/h (1 Bft) 90 %
22.01.2016 08:00 -9,7 C -9,8 C -9,7 C 91 % 1030,6 hPa 0,0 l/m 0,0 km/h (0 Bft) N-NW 337 0 min 0,000 mm 0 W/m -10,9 C -9,7 C 1,6 km/h (1 Bft) 99 %
22.01.2016 08:10 -9,7 C -9,7 C -9,7 C 91 % 1030,5 hPa 0,0 l/m 0,0 km/h (0 Bft) N 0 0 min 0,000 mm 0 W/m -10,9 C -9,7 C 0,0 km/h (0 Bft) 100 %
22.01.2016 08:20 -9,6 C -9,7 C -9,6 C 91 % 1030,7 hPa 0,0 l/m 0,0 km/h (0 Bft) N-NW 337 0 min 0,000 mm 7 W/m -10,8 C -9,6 C 1,6 km/h (1 Bft) 99 %
22.01.2016 08:30 -9,4 C -9,6 C -9,4 C 91 % 1030,9 hPa 0,0 l/m 0,0 km/h (0 Bft) N-NW 337 0 min 0,000 mm 12 W/m -10,6 C -9,4 C 3,2 km/h (1 Bft) 100 %
22.01.2016 08:40 -9,4 C -9,4 C -9,4 C 90 % 1030,9 hPa 0,0 l/m 0,0 km/h (0 Bft) N 0 0 min 0,000 mm 19 W/m -10,7 C -9,4 C 0,0 km/h (0 Bft) 100 %
22.01.2016 08:50 -9,5 C -9,5 C -9,4 C 90 % 1031,1 hPa 0,0 l/m 0,0 km/h (0 Bft) N 0 0 min 0,000 mm 26 W/m -10,8 C -9,5 C 0,0 km/h (0 Bft) 100 %
22.01.2016 09:00 -9,4 C -9,5 C -9,4 C 91 % 1031,1 hPa 0,0 l/m 0,0 km/h (0 Bft) N 0 0 min 0,000 mm 40 W/m -10,6 C -9,4 C 0,0 km/h (0 Bft) 100 %
22.01.2016 09:10 -9,4 C -9,4 C -9,3 C 91 % 1031,2 hPa 0,0 l/m 0,0 km/h (0 Bft) N 0 0 min 0,000 mm 42 W/m -10,6 C -9,4 C 0,0 km/h (0 Bft) 100 %
22.01.2016 09:20 -9,1 C -9,4 C -9,1 C 91 % 1031,3 hPa 0,0 l/m 0,0 km/h (0 Bft) N 0 0 min 0,000 mm 49 W/m -10,3 C -9,1 C 0,0 km/h (0 Bft) 100 %
22.01.2016 09:30 -8,7 C -9,1 C -8,7 C 91 % 1031,2 hPa 0,0 l/m 0,0 km/h (0 Bft) N 0 0 min 0,000 mm 54 W/m -9,9 C -8,7 C 0,0 km/h (0 Bft) 99 %
22.01.2016 09:40 -8,2 C -8,6 C -8,2 C 91 % 1031,3 hPa 0,0 l/m 0,0 km/h (0 Bft) N 0 0 min 0,000 mm 54 W/m -9,4 C -8,2 C 0,0 km/h (0 Bft) 100 %
22.01.2016 09:50 -7,8 C -8,2 C -7,8 C 91 % 1031,2 hPa 0,0 l/m 0,0 km/h (0 Bft) N 0 0 min 0,000 mm 60 W/m -9,0 C -7,8 C 0,0 km/h (0 Bft) 100 %
22.01.2016 10:00 -7,5 C -7,8 C -7,5 C 90 % 1031,2 hPa 0,0 l/m 0,0 km/h (0 Bft) N 0 0 min 0,000 mm 69 W/m -8,8 C -7,5 C 0,0 km/h (0 Bft) 100 %
22.01.2016 10:10 -7,3 C -7,5 C -7,3 C 91 % 1031,0 hPa 0,0 l/m 0,0 km/h (0 Bft) N-NW 337 0 min 0,000 mm 77 W/m -8,5 C -7,3 C 3,2 km/h (1 Bft) 98 %
22.01.2016 10:20 -6,9 C -7,3 C -6,9 C 91 % 1031,1 hPa 0,0 l/m 0,0 km/h (0 Bft) N-NW 337 0 min 0,000 mm 86 W/m -8,1 C -6,9 C 6,4 km/h (2 Bft) 97 %
22.01.2016 10:30 -6,5 C -7,3 C -6,5 C 91 % 1030,8 hPa 0,0 l/m 1,0 km/h (0 Bft) W-SW 248 0 min 0,000 mm 107 W/m -7,7 C -6,5 C 3,2 km/h (1 Bft) 100 %
22.01.2016 10:40 -6,2 C -6,5 C -6,2 C 91 % 1031,1 hPa 0,0 l/m 0,7 km/h (0 Bft) O-SO 107 0 min 0,000 mm 113 W/m -7,4 C -6,2 C 4,8 km/h (1 Bft) 99 %
22.01.2016 10:50 -6,1 C -6,2 C -6,1 C 91 % 1031,1 hPa 0,0 l/m 1,5 km/h (1 Bft) O 85 0 min 0,000 mm 104 W/m -7,3 C -6,1 C 8,0 km/h (2 Bft) 99 %
22.01.2016 11:00 -5,8 C -6,1 C -5,8 C 91 % 1031,0 hPa 0,0 l/m 0,4 km/h (0 Bft) O 93 0 min 0,025 mm 132 W/m -7,0 C -5,8 C 4,8 km/h (1 Bft) 100 %
22.01.2016 11:10 -5,4 C -5,8 C -5,4 C 91 % 1031,0 hPa 0,0 l/m 0,8 km/h (0 Bft) O 81 0 min 0,000 mm 135 W/m -6,6 C -5,4 C 9,7 km/h (2 Bft) 99 %
22.01.2016 11:20 -5,1 C -5,4 C -5,1 C 90 % 1031,0 hPa 0,0 l/m 1,0 km/h (0 Bft) O 95 10 min 0,000 mm 153 W/m -6,5 C -5,1 C 6,4 km/h (2 Bft) 99 %
22.01.2016 11:30 -4,8 C -5,1 C -4,8 C 89 % 1030,9 hPa 0,0 l/m 1,0 km/h (0 Bft) O-SO 115 0 min 0,000 mm 144 W/m -6,3 C -4,8 C 6,4 km/h (2 Bft) 99 %
22.01.2016 11:40 -4,5 C -4,8 C -4,5 C 90 % 1030,9 hPa 0,0 l/m 0,6 km/h (0 Bft) O 92 10 min 0,000 mm 269 W/m -5,9 C -4,5 C 4,8 km/h (1 Bft) 100 %
22.01.2016 11:50 -4,2 C -4,5 C -4,2 C 89 % 1030,7 hPa 0,0 l/m 1,2 km/h (1 Bft) O-SO 109 10 min 0,000 mm 199 W/m -5,7 C -4,2 C 9,7 km/h (2 Bft) 99 %
22.01.2016 12:00 -3,7 C -4,2 C -3,7 C 89 % 1030,6 hPa 0,0 l/m 0,9 km/h (0 Bft) O-SO 111 10 min 0,051 mm 299 W/m -5,2 C -3,7 C 6,4 km/h (2 Bft) 99 %
22.01.2016 12:10 -3,2 C -3,7 C -3,2 C 87 % 1030,4 hPa 0,0 l/m 0,7 km/h (0 Bft) O-SO 123 10 min 0,000 mm 236 W/m -5,0 C -3,2 C 6,4 km/h (2 Bft) 100 %
22.01.2016 12:20 -3,1 C -3,2 C -3,0 C 85 % 1030,4 hPa 0,0 l/m 0,5 km/h (0 Bft) SO 128 10 min 0,000 mm 211 W/m -5,3 C -3,1 C 8,0 km/h (2 Bft) 99 %
22.01.2016 12:30 -2,9 C -3,1 C -2,9 C 85 % 1030,3 hPa 0,0 l/m 0,4 km/h (0 Bft) O 95 10 min 0,000 mm 186 W/m -5,1 C -2,9 C 4,8 km/h (1 Bft) 99 %
22.01.2016 12:40 -2,9 C -3,0 C -2,9 C 85 % 1030,2 hPa 0,0 l/m 1,3 km/h (1 Bft) O-SO 102 10 min 0,000 mm 200 W/m -5,1 C -2,9 C 8,0 km/h (2 Bft) 91 %
22.01.2016 12:50 -2,8 C -3,0 C -2,8 C 85 % 1030,2 hPa 0,0 l/m 0,9 km/h (0 Bft) O 97 10 min 0,000 mm 185 W/m -5,0 C -2,8 C 9,7 km/h (2 Bft) 100 %
22.01.2016 13:00 -2,7 C -2,8 C -2,7 C 85 % 1030,1 hPa 0,0 l/m 1,2 km/h (1 Bft) O 100 10 min 0,076 mm 192 W/m -4,9 C -2,7 C 6,4 km/h (2 Bft) 100 %
22.01.2016 13:10 -2,6 C -2,7 C -2,6 C 85 % 1029,9 hPa 0,0 l/m 1,1 km/h (1 Bft) SO 142 10 min 0,000 mm 257 W/m -4,8 C -2,6 C 8,0 km/h (2 Bft) 100 %
22.01.2016 13:20 -2,3 C -2,6 C -2,3 C 85 % 1029,9 hPa 0,0 l/m 0,8 km/h (0 Bft) SO 125 10 min 0,000 mm 323 W/m -4,5 C -2,3 C 6,4 km/h (2 Bft) 91 %
22.01.2016 13:30 -2,0 C -2,3 C -2,0 C 84 % 1029,6 hPa 0,0 l/m 1,1 km/h (1 Bft) O 101 10 min 0,000 mm 234 W/m -4,3 C -2,0 C 8,0 km/h (2 Bft) 100 %
22.01.2016 13:40 -1,9 C -2,0 C -1,9 C 83 % 1029,6 hPa 0,0 l/m 0,0 km/h (0 Bft) O 90 10 min 0,000 mm 183 W/m -4,4 C -1,9 C 1,6 km/h (1 Bft) 100 %
22.01.2016 13:50 -2,0 C -2,0 C -1,9 C 84 % 1029,5 hPa 0,0 l/m 0,9 km/h (0 Bft) SO 125 10 min 0,000 mm 174 W/m -4,3 C -2,0 C 6,4 km/h (2 Bft) 99 %
22.01.2016 14:00 -1,9 C -2,0 C -1,9 C 84 % 1029,6 hPa 0,0 l/m 0,0 km/h (0 Bft) O-SO 107 10 min 0,051 mm 156 W/m -4,2 C -1,9 C 1,6 km/h (1 Bft) 100 %
22.01.2016 14:10 -1,8 C -1,9 C -1,8 C 84 % 1029,5 hPa 0,0 l/m 1,6 km/h (1 Bft) O 93 0 min 0,000 mm 148 W/m -4,1 C -1,8 C 8,0 km/h (2 Bft) 100 %
22.01.2016 14:20 -1,6 C -1,8 C -1,6 C 83 % 1029,6 hPa 0,0 l/m 0,4 km/h (0 Bft) O-NO 78 0 min 0,000 mm 141 W/m -4,1 C -1,6 C 4,8 km/h (1 Bft) 100 %
22.01.2016 14:30 -1,4 C -1,6 C -1,4 C 83 % 1029,6 hPa 0,0 l/m 0,2 km/h (0 Bft) O 94 0 min 0,000 mm 130 W/m -3,9 C -1,4 C 4,8 km/h (1 Bft) 99 %
22.01.2016 14:40 -1,2 C -1,4 C -1,2 C 83 % 1029,6 hPa 0,0 l/m 0,3 km/h (0 Bft) O-SO 108 10 min 0,000 mm 163 W/m -3,7 C -1,2 C 4,8 km/h (1 Bft) 96 %
22.01.2016 14:50 -1,1 C -1,2 C -1,1 C 83 % 1029,5 hPa 0,0 l/m 0,0 km/h (0 Bft) O-SO 108 10 min 0,000 mm 181 W/m -3,6 C -1,1 C 0,0 km/h (0 Bft) 97 %
22.01.2016 15:00 -1,0 C -1,1 C -0,9 C 81 % 1029,4 hPa 0,0 l/m 0,3 km/h (0 Bft) O-SO 122 0 min 0,051 mm 134 W/m -3,8 C -1,0 C 6,4 km/h (2 Bft) 96 %
22.01.2016 15:10 -1,0 C -1,0 C -0,9 C 81 % 1029,4 hPa 0,0 l/m 0,2 km/h (0 Bft) O-SO 103 0 min 0,000 mm 148 W/m -3,8 C -1,0 C 6,4 km/h (2 Bft) 98 %
22.01.2016 15:20 -0,9 C -1,1 C -0,9 C 82 % 1029,5 hPa 0,0 l/m 0,0 km/h (0 Bft) SO 130 0 min 0,000 mm 128 W/m -3,6 C -0,9 C 0,0 km/h (0 Bft) 97 %
22.01.2016 15:30 -0,9 C -0,9 C -0,8 C 81 % 1029,4 hPa 0,0 l/m 0,0 km/h (0 Bft) SO 128 0 min 0,000 mm 63 W/m -3,7 C -0,9 C 0,0 km/h (0 Bft) 98 %
22.01.2016 15:40 -0,9 C -0,9 C -0,9 C 81 % 1029,4 hPa 0,0 l/m 0,0 km/h (0 Bft) SO 130 0 min 0,000 mm 42 W/m -3,7 C -0,9 C 0,0 km/h (0 Bft) 98 %
22.01.2016 15:50 -1,0 C -1,0 C -0,9 C 81 % 1029,4 hPa 0,0 l/m 0,4 km/h (0 Bft) O-SO 118 0 min 0,000 mm 37 W/m -3,8 C -1,0 C 6,4 km/h (2 Bft) 100 %
22.01.2016 16:00 -1,1 C -1,1 C -1,0 C 82 % 1029,4 hPa 0,0 l/m 0,0 km/h (0 Bft) O-SO 118 0 min 0,025 mm 32 W/m -3,8 C -1,1 C 0,0 km/h (0 Bft) 90 %
22.01.2016 16:10 -1,4 C -1,4 C -1,1 C 82 % 1029,2 hPa 0,0 l/m 0,0 km/h (0 Bft) O-SO 116 0 min 0,000 mm 26 W/m -4,1 C -1,4 C 0,0 km/h (0 Bft) 100 %
22.01.2016 16:20 -1,7 C -1,7 C -1,4 C 83 % 1029,2 hPa 0,0 l/m 0,3 km/h (0 Bft) O-SO 117 0 min 0,000 mm 12 W/m -4,2 C -1,7 C 4,8 km/h (1 Bft) 100 %
22.01.2016 16:30 -2,0 C -2,0 C -1,7 C 83 % 1029,2 hPa 0,0 l/m 0,0 km/h (0 Bft) SO 132 0 min 0,000 mm 7 W/m -4,5 C -2,0 C 3,2 km/h (1 Bft) 100 %
22.01.2016 16:40 -2,3 C -2,3 C -2,0 C 84 % 1029,2 hPa 0,0 l/m 0,2 km/h (0 Bft) SO 126 0 min 0,000 mm 5 W/m -4,6 C -2,3 C 3,2 km/h (1 Bft) 100 %
22.01.2016 16:50 -2,6 C -2,6 C -2,3 C 85 % 1029,1 hPa 0,0 l/m 0,1 km/h (0 Bft) SO 124 0 min 0,000 mm 0 W/m -4,8 C -2,6 C 3,2 km/h (1 Bft) 91 %
22.01.2016 17:00 -2,8 C -2,8 C -2,6 C 86 % 1029,2 hPa 0,0 l/m 0,0 km/h (0 Bft) O-SO 116 0 min 0,000 mm 0 W/m -4,8 C -2,8 C 1,6 km/h (1 Bft) 100 %
22.01.2016 17:10 -2,9 C -2,9 C -2,8 C 86 % 1029,2 hPa 0,0 l/m 0,4 km/h (0 Bft) O-NO 64 0 min 0,000 mm 0 W/m -4,9 C -2,9 C 4,8 km/h (1 Bft) 99 %
22.01.2016 17:20 -3,0 C -3,0 C -2,9 C 86 % 1029,2 hPa 0,0 l/m 0,0 km/h (0 Bft) O-NO 62 0 min 0,000 mm 0 W/m -5,0 C -3,0 C 0,0 km/h (0 Bft) 100 %
22.01.2016 17:30 -3,2 C -3,2 C -2,9 C 86 % 1029,0 hPa 0,0 l/m 0,1 km/h (0 Bft) O-NO 75 0 min 0,000 mm 0 W/m -5,2 C -3,2 C 4,8 km/h (1 Bft) 100 %
22.01.2016 17:40 -3,5 C -3,5 C -3,2 C 87 % 1029,1 hPa 0,0 l/m 0,4 km/h (0 Bft) O 80 0 min 0,000 mm 0 W/m -5,3 C -3,5 C 4,8 km/h (1 Bft) 98 %
22.01.2016 17:50 -3,8 C -3,8 C -3,5 C 87 % 1029,0 hPa 0,0 l/m 0,1 km/h (0 Bft) O-NO 69 0 min 0,000 mm 0 W/m -5,6 C -3,8 C 3,2 km/h (1 Bft) 100 %
22.01.2016 18:00 -4,2 C -4,2 C -3,8 C 87 % 1029,0 hPa 0,0 l/m 0,6 km/h (0 Bft) O-NO 61 0 min 0,000 mm 0 W/m -6,0 C -4,2 C 3,2 km/h (1 Bft) 100 %
22.01.2016 18:10 -4,4 C -4,4 C -4,2 C 88 % 1028,9 hPa 0,0 l/m 0,0 km/h (0 Bft) O-NO 60 0 min 0,000 mm 0 W/m -6,1 C -4,4 C 1,6 km/h (1 Bft) 100 %
22.01.2016 18:20 -4,4 C -4,4 C -4,4 C 89 % 1029,1 hPa 0,0 l/m 0,0 km/h (0 Bft) O-NO 57 0 min 0,000 mm 0 W/m -5,9 C -4,4 C 0,0 km/h (0 Bft) 100 %
22.01.2016 18:30 -4,6 C -4,6 C -4,4 C 89 % 1029,0 hPa 0,0 l/m 0,0 km/h (0 Bft) O-NO 57 0 min 0,000 mm 0 W/m -6,1 C -4,6 C 0,0 km/h (0 Bft) 91 %
22.01.2016 18:40 -4,7 C -4,7 C -4,6 C 89 % 1029,0 hPa 0,0 l/m 0,0 km/h (0 Bft) O-NO 57 0 min 0,000 mm 0 W/m -6,2 C -4,7 C 1,6 km/h (1 Bft) 100 %
22.01.2016 18:50 -4,8 C -4,8 C -4,7 C 89 % 1029,1 hPa 0,0 l/m 0,0 km/h (0 Bft) O-NO 57 0 min 0,000 mm 0 W/m -6,3 C -4,8 C 0,0 km/h (0 Bft) 100 %
22.01.2016 19:00 -5,1 C -5,1 C -4,8 C 88 % 1029,2 hPa 0,0 l/m 0,5 km/h (0 Bft) O-NO 57 0 min 0,000 mm 0 W/m -6,8 C -5,1 C 3,2 km/h (1 Bft) 91 %
22.01.2016 19:10 -5,3 C -5,3 C -5,1 C 89 % 1029,2 hPa 0,0 l/m 0,1 km/h (0 Bft) O-NO 57 0 min 0,000 mm 0 W/m -6,8 C -5,3 C 1,6 km/h (1 Bft) 100 %
22.01.2016 19:20 -5,6 C -5,6 C -5,3 C 90 % 1029,2 hPa 0,0 l/m 0,0 km/h (0 Bft) O-NO 57 0 min 0,000 mm 0 W/m -7,0 C -5,6 C 0,0 km/h (0 Bft) 100 %
22.01.2016 19:30 -5,8 C -5,8 C -5,6 C 90 % 1029,2 hPa 0,0 l/m 0,0 km/h (0 Bft) O-NO 57 0 min 0,000 mm 0 W/m -7,2 C -5,8 C 0,0 km/h (0 Bft) 100 %
22.01.2016 19:40 -6,0 C -6,0 C -5,8 C 90 % 1029,1 hPa 0,0 l/m 0,0 km/h (0 Bft) O-NO 57 0 min 0,000 mm 0 W/m -7,4 C -6,0 C 1,6 km/h (1 Bft) 100 %
22.01.2016 19:50 -6,1 C -6,1 C -6,0 C 91 % 1029,0 hPa 0,0 l/m 0,0 km/h (0 Bft) O-NO 57 0 min 0,000 mm 0 W/m -7,3 C -6,1 C 1,6 km/h (1 Bft) 99 %
22.01.2016 20:00 -6,2 C -6,2 C -6,1 C 91 % 1029,0 hPa 0,0 l/m 0,8 km/h (0 Bft) NO 37 0 min 0,000 mm 0 W/m -7,4 C -6,2 C 3,2 km/h (1 Bft) 100 %
22.01.2016 20:10 -6,3 C -6,3 C -6,2 C 91 % 1029,1 hPa 0,0 l/m 0,0 km/h (0 Bft) NO 37 0 min 0,000 mm 0 W/m -7,5 C -6,3 C 3,2 km/h (1 Bft) 99 %
22.01.2016 20:20 -6,3 C -6,3 C -6,3 C 91 % 1028,9 hPa 0,0 l/m 0,0 km/h (0 Bft) NO 37 0 min 0,000 mm 0 W/m -7,5 C -6,3 C 1,6 km/h (1 Bft) 91 %
22.01.2016 20:30 -6,2 C -6,3 C -6,2 C 91 % 1028,8 hPa 0,0 l/m 0,0 km/h (0 Bft) NO 37 0 min 0,000 mm 0 W/m -7,4 C -6,2 C 0,0 km/h (0 Bft) 100 %
22.01.2016 20:40 -6,2 C -6,2 C -6,2 C 91 % 1028,9 hPa 0,0 l/m 0,5 km/h (0 Bft) NO 37 0 min 0,000 mm 0 W/m -7,4 C -6,2 C 3,2 km/h (1 Bft) 100 %
22.01.2016 20:50 -6,2 C -6,2 C -6,2 C 91 % 1029,0 hPa 0,0 l/m 0,4 km/h (0 Bft) NO 37 0 min 0,000 mm 0 W/m -7,4 C -6,2 C 3,2 km/h (1 Bft) 100 %
22.01.2016 21:00 -6,2 C -6,2 C -6,2 C 91 % 1028,8 hPa 0,0 l/m 0,0 km/h (0 Bft) NO 37 0 min 0,000 mm 0 W/m -7,4 C -6,2 C 0,0 km/h (0 Bft) 100 %
22.01.2016 21:10 -6,1 C -6,2 C -6,1 C 91 % 1028,6 hPa 0,0 l/m 0,0 km/h (0 Bft) N 0 0 min 0,000 mm 0 W/m -7,3 C -6,1 C 0,0 km/h (0 Bft) 100 %
22.01.2016 21:20 -5,9 C -6,1 C -5,9 C 91 % 1028,6 hPa 0,0 l/m 0,0 km/h (0 Bft) N 0 0 min 0,000 mm 0 W/m -7,1 C -5,9 C 0,0 km/h (0 Bft) 100 %
22.01.2016 21:30 -5,8 C -5,9 C -5,8 C 91 % 1028,7 hPa 0,0 l/m 0,0 km/h (0 Bft) NO 45 0 min 0,000 mm 0 W/m -7,0 C -5,8 C 3,2 km/h (1 Bft) 91 %
22.01.2016 21:40 -5,7 C -5,8 C -5,7 C 91 % 1028,6 hPa 0,0 l/m 0,0 km/h (0 Bft) NO 45 0 min 0,000 mm 0 W/m -6,9 C -5,7 C 1,6 km/h (1 Bft) 100 %
22.01.2016 21:50 -5,6 C -5,7 C -5,6 C 91 % 1028,8 hPa 0,0 l/m 0,0 km/h (0 Bft) N 0 0 min 0,000 mm 0 W/m -6,8 C -5,6 C 0,0 km/h (0 Bft) 100 %
22.01.2016 22:00 -5,7 C -5,7 C -5,6 C 91 % 1028,9 hPa 0,0 l/m 0,0 km/h (0 Bft) N 0 0 min 0,000 mm 0 W/m -6,9 C -5,7 C 0,0 km/h (0 Bft) 100 %
22.01.2016 22:10 -5,7 C -5,7 C -5,7 C 91 % 1029,0 hPa 0,0 l/m 0,0 km/h (0 Bft) NO 45 0 min 0,000 mm 0 W/m -6,9 C -5,7 C 1,6 km/h (1 Bft) 100 %
22.01.2016 22:20 -5,7 C -5,7 C -5,7 C 91 % 1028,9 hPa 0,0 l/m 0,0 km/h (0 Bft) N 0 0 min 0,000 mm 0 W/m -6,9 C -5,7 C 0,0 km/h (0 Bft) 100 %
22.01.2016 22:30 -5,7 C -5,8 C -5,7 C 91 % 1028,9 hPa 0,0 l/m 0,0 km/h (0 Bft) N 0 0 min 0,000 mm 0 W/m -6,9 C -5,7 C 0,0 km/h (0 Bft) 91 %
22.01.2016 22:40 -5,8 C -5,8 C -5,7 C 91 % 1029,0 hPa 0,0 l/m 0,0 km/h (0 Bft) NO 45 0 min 0,000 mm 0 W/m -7,0 C -5,8 C 3,2 km/h (1 Bft) 100 %
22.01.2016 22:50 -5,8 C -5,8 C -5,8 C 91 % 1028,9 hPa 0,0 l/m 0,0 km/h (0 Bft) NO 45 0 min 0,000 mm 0 W/m -7,0 C -5,8 C 1,6 km/h (1 Bft) 100 %
22.01.2016 23:00 -5,8 C -5,8 C -5,8 C 91 % 1028,9 hPa 0,0 l/m 0,0 km/h (0 Bft) N 0 0 min 0,000 mm 0 W/m -7,0 C -5,8 C 0,0 km/h (0 Bft) 99 %
22.01.2016 23:10 -5,8 C -5,8 C -5,8 C 91 % 1028,8 hPa 0,0 l/m 0,0 km/h (0 Bft) N 0 0 min 0,000 mm 0 W/m -7,0 C -5,8 C 0,0 km/h (0 Bft) 100 %
22.01.2016 23:20 -5,6 C -5,8 C -5,6 C 91 % 1028,9 hPa 0,0 l/m 0,0 km/h (0 Bft) NO 45 0 min 0,000 mm 0 W/m -6,8 C -5,6 C 3,2 km/h (1 Bft) 100 %
22.01.2016 23:30 -5,4 C -5,6 C -5,4 C 91 % 1028,8 hPa 0,0 l/m 0,0 km/h (0 Bft) N 0 0 min 0,000 mm 0 W/m -6,6 C -5,4 C 0,0 km/h (0 Bft) 90 %
22.01.2016 23:40 -5,4 C -5,4 C -5,4 C 91 % 1028,7 hPa 0,0 l/m 0,0 km/h (0 Bft) N 0 0 min 0,000 mm 0 W/m -6,6 C -5,4 C 0,0 km/h (0 Bft) 100 %
22.01.2016 23:50 -5,3 C -5,4 C -5,3 C 91 % 1028,8 hPa 0,0 l/m 0,0 km/h (0 Bft) NO 45 0 min 0,000 mm 0 W/m -6,5 C -5,3 C 3,2 km/h (1 Bft) 100 %
_ Min-Zeit 07:40 07:40 07:50 15:00 21:10 - 00:00 - - - - - 07:40 07:40 00:10 02:20
Minimum _ -9,8 C -9,8 C -9,8 C 81 % 1028,6 hPa - 0,0 km/h (0 Bft) - - - - - -11,1 C -9,8 C 0,0 km/h (0 Bft) 87 %
_ Max-Zeit 15:30 15:30 15:30 00:00 09:20 00:00 05:30 - - 11:20 13:00 13:20 15:20 15:20 11:10 00:00
Maximum _ -0,8 C -0,9 C -0,8 C 92 % 1031,3 hPa 0,0 l/m 1,6 km/h
N-NW (1 Bft)
- - 10 min 0,076 mm 323 W/m -3,6 C -0,9 C 9,7 km/h
SO (2 Bft)
100 %
Durchschnitt _ -6,0 C -6,1 C -6,0 C 89 % 1029,8 hPa #0,0 l/m 0,2 km/h (0 Bft) O - #3:00 h #0,279 mm 121 W/m -7,5 C -6,0 C 2,6 km/h (1 Bft) 99 %
PRIVATE WETTERSTATION BILLIGHEIM-ALLFELD - www.neckar-odenwald-wetter.de - Holger Sonntag